PWSweather.com
Personal Weather Stations
Station Observations
KCOBOOMER
Belmont, Pueblo, CO 81001

BelmontPueblo, CO 81001

Lat: 38.2977486, Lon: -104.5754318

Elevation: 4795

Station Type: Davis Vantage Pro 2

http://www.puebloweather.net

Latest ConditionsUpdated 5:17:35 PM MST Sunday, Nov 19, 2017
Currently Today's Max Today's Min Today's Average
Temperature 55.9°F13.3°C 63.3°F17.4°C 24.4°F-4.2°C 40.8°F4.9°C
Dew Point 9.0°F-12.8°C 24.8°F-4.0°C 3.0°F-16.1°C 17.9°F-7.8°C
Winds 3.6 mph WNW5.8 kmh WNW 17.0 mph S27.4 kmh S - 6.3 mph 10.1 kmh
Wind Gusts 14.8 mph23.8 kmh 27.5 mph44.3 kmh - -
Humidity 15% 79% 9% 50%
Pressure 29.98 in1015.2 mb 30.41 in1029.8 mb 29.98 in1015.2 mb -
Hour Temp Dew Point Humidity Winds Wind Gusts Pressure Precip Precip Rate Daily Precip Total
05:17 PM 55.9°F13.3°C 9.0°F-12.8°C 15% 3.6 mph WNW5.8 kmh WNW 14.8 mph23.8 kmh 29.98 in1015.2 mb 0.00 in0.0 mm 0.00 in0.0 mm 0.00 in0.0 mm
05:12 PM 56.3°F13.5°C 7.7°F-13.5°C 14% 5.1 mph W8.2 kmh W 12.8 mph20.6 kmh 29.98 in1015.2 mb 0.00 in0.0 mm 0.00 in0.0 mm 0.00 in0.0 mm
05:07 PM 56.8°F13.8°C 8.1°F-13.3°C 14% 4.3 mph W6.9 kmh W 12.8 mph20.6 kmh 29.98 in1015.2 mb 0.00 in0.0 mm 0.00 in0.0 mm 0.00 in0.0 mm
05:02 PM 57.4°F14.1°C 7.0°F-13.9°C 13% 3.8 mph W6.1 kmh W 10.5 mph16.9 kmh 29.98 in1015.2 mb 0.00 in0.0 mm 0.00 in0.0 mm 0.00 in0.0 mm
04:57 PM 57.6°F14.2°C 7.0°F-13.9°C 13% 1.8 mph W2.9 kmh W 12.8 mph20.6 kmh 29.98 in1015.2 mb 0.00 in0.0 mm 0.00 in0.0 mm 0.00 in0.0 mm
04:52 PM 57.7°F14.3°C 7.2°F-13.8°C 13% 3.4 mph WSW5.5 kmh WSW 11.6 mph18.7 kmh 29.99 in1015.6 mb 0.00 in0.0 mm 0.00 in0.0 mm 0.00 in0.0 mm
04:47 PM 58.3°F14.6°C 5.9°F-14.5°C 12% 5.6 mph WSW9.0 kmh WSW 14.8 mph23.8 kmh 29.99 in1015.6 mb 0.00 in0.0 mm 0.00 in0.0 mm 0.00 in0.0 mm
04:42 PM 58.5°F14.7°C 6.1°F-14.4°C 12% 7.8 mph WSW12.6 kmh WSW 12.8 mph20.6 kmh 29.99 in1015.6 mb 0.00 in0.0 mm 0.00 in0.0 mm 0.00 in0.0 mm
04:37 PM 58.6°F14.8°C 7.9°F-13.4°C 13% 5.8 mph WSW9.3 kmh WSW 10.5 mph16.9 kmh 29.99 in1015.6 mb 0.00 in0.0 mm 0.00 in0.0 mm 0.00 in0.0 mm
04:32 PM 59.2°F15.1°C 8.4°F-13.1°C 13% 1.8 mph SW2.9 kmh SW 7.4 mph11.9 kmh 29.99 in1015.6 mb 0.00 in0.0 mm 0.00 in0.0 mm 0.00 in0.0 mm
04:27 PM 59.4°F15.2°C 8.4°F-13.1°C 13% 2.9 mph S4.7 kmh S 14.8 mph23.8 kmh 29.99 in1015.6 mb 0.00 in0.0 mm 0.00 in0.0 mm 0.00 in0.0 mm
04:22 PM 59.7°F15.4°C 7.0°F-13.9°C 12% 4.3 mph SW6.9 kmh SW 9.6 mph15.4 kmh 30.00 in1015.9 mb 0.00 in0.0 mm 0.00 in0.0 mm 0.00 in0.0 mm
04:17 PM 60.1°F15.6°C 9.1°F-12.7°C 13% 5.8 mph SSW9.3 kmh SSW 17.0 mph27.4 kmh 30.00 in1015.9 mb 0.00 in0.0 mm 0.00 in0.0 mm 0.00 in0.0 mm
04:12 PM 60.4°F15.8°C 7.5°F-13.6°C 12% 7.6 mph SW12.2 kmh SW 18.1 mph29.1 kmh 30.01 in1016.3 mb 0.00 in0.0 mm 0.00 in0.0 mm 0.00 in0.0 mm
04:07 PM 60.6°F15.9°C 9.5°F-12.5°C 13% 6.3 mph SW10.1 kmh SW 14.8 mph23.8 kmh 30.01 in1016.3 mb 0.00 in0.0 mm 0.00 in0.0 mm 0.00 in0.0 mm
04:02 PM 61.0°F16.1°C 9.7°F-12.4°C 13% 7.4 mph SW11.9 kmh SW 14.8 mph23.8 kmh 30.01 in1016.3 mb 0.00 in0.0 mm 0.00 in0.0 mm 0.00 in0.0 mm
03:57 PM 61.0°F16.1°C 9.7°F-12.4°C 13% 5.1 mph SW8.2 kmh SW 10.5 mph16.9 kmh 30.01 in1016.3 mb 0.00 in0.0 mm 0.00 in0.0 mm 0.00 in0.0 mm
03:52 PM 61.2°F16.2°C 8.1°F-13.3°C 12% 9.6 mph SSW15.4 kmh SSW 14.8 mph23.8 kmh 30.02 in1016.6 mb 0.00 in0.0 mm 0.00 in0.0 mm 0.00 in0.0 mm
03:47 PM 61.5°F16.4°C 8.4°F-13.1°C 12% 12.5 mph SW20.1 kmh SW 17.0 mph27.4 kmh 30.02 in1016.6 mb 0.00 in0.0 mm 0.00 in0.0 mm 0.00 in0.0 mm
03:42 PM 61.7°F16.5°C 8.6°F-13.0°C 12% 7.2 mph SW11.6 kmh SW 14.8 mph23.8 kmh 30.02 in1016.6 mb 0.00 in0.0 mm 0.00 in0.0 mm 0.00 in0.0 mm
03:37 PM 61.9°F16.6°C 6.8°F-14.0°C 11% 1.6 mph SW2.6 kmh SW 10.5 mph16.9 kmh 30.03 in1016.9 mb 0.00 in0.0 mm 0.00 in0.0 mm 0.00 in0.0 mm
03:32 PM 61.9°F16.6°C 4.6°F-15.2°C 10% 5.4 mph SW8.7 kmh SW 13.9 mph22.4 kmh 30.03 in1016.9 mb 0.00 in0.0 mm 0.00 in0.0 mm 0.00 in0.0 mm
03:27 PM 62.1°F16.7°C 7.0°F-13.9°C 11% 5.8 mph SW9.3 kmh SW 17.0 mph27.4 kmh 30.03 in1016.9 mb 0.00 in0.0 mm 0.00 in0.0 mm 0.00 in0.0 mm
03:22 PM 62.2°F16.8°C 5.0°F-15.0°C 10% 11.6 mph SSW18.7 kmh SSW 15.9 mph25.6 kmh 30.03 in1016.9 mb 0.00 in0.0 mm 0.00 in0.0 mm 0.00 in0.0 mm
03:17 PM 62.2°F16.8°C 7.0°F-13.9°C 11% 8.5 mph SW13.7 kmh SW 12.8 mph20.6 kmh 30.04 in1017.3 mb 0.00 in0.0 mm 0.00 in0.0 mm 0.00 in0.0 mm
03:12 PM 62.1°F16.7°C 4.8°F-15.1°C 10% 9.6 mph SW15.4 kmh SW 19.0 mph30.6 kmh 30.04 in1017.3 mb 0.00 in0.0 mm 0.00 in0.0 mm 0.00 in0.0 mm
03:07 PM 62.8°F17.1°C 3.0°F-16.1°C 9% 16.1 mph SSW25.9 kmh SSW 27.5 mph44.3 kmh 30.04 in1017.3 mb 0.00 in0.0 mm 0.00 in0.0 mm 0.00 in0.0 mm
03:02 PM 63.3°F17.4°C 3.6°F-15.8°C 9% 8.9 mph SW14.3 kmh SW 19.0 mph30.6 kmh 30.05 in1017.6 mb 0.00 in0.0 mm 0.00 in0.0 mm 0.00 in0.0 mm
02:57 PM 63.3°F17.4°C 5.7°F-14.6°C 10% 12.5 mph SW20.1 kmh SW 17.0 mph27.4 kmh 30.05 in1017.6 mb 0.00 in0.0 mm 0.00 in0.0 mm 0.00 in0.0 mm
02:52 PM 63.0°F17.2°C 5.5°F-14.7°C 10% 14.5 mph S23.3 kmh S 25.5 mph41.0 kmh 30.06 in1017.9 mb 0.00 in0.0 mm 0.00 in0.0 mm 0.00 in0.0 mm
02:47 PM 63.1°F17.3°C 7.7°F-13.5°C 11% 8.7 mph SW14.0 kmh SW 21.3 mph34.3 kmh 30.06 in1017.9 mb 0.00 in0.0 mm 0.00 in0.0 mm 0.00 in0.0 mm
02:42 PM 63.3°F17.4°C 5.7°F-14.6°C 10% 9.6 mph SW15.4 kmh SW 15.9 mph25.6 kmh 30.06 in1017.9 mb 0.00 in0.0 mm 0.00 in0.0 mm 0.00 in0.0 mm
02:37 PM 63.1°F17.3°C 5.7°F-14.6°C 10% 11.9 mph SW19.2 kmh SW 23.3 mph37.5 kmh 30.06 in1017.9 mb 0.00 in0.0 mm 0.00 in0.0 mm 0.00 in0.0 mm
02:32 PM 63.3°F17.4°C 5.7°F-14.6°C 10% 7.8 mph WSW12.6 kmh WSW 18.1 mph29.1 kmh 30.07 in1018.3 mb 0.00 in0.0 mm 0.00 in0.0 mm 0.00 in0.0 mm
02:27 PM 63.0°F17.2°C 7.5°F-13.6°C 11% 9.6 mph S15.4 kmh S 21.3 mph34.3 kmh 30.08 in1018.6 mb 0.00 in0.0 mm 0.00 in0.0 mm 0.00 in0.0 mm
02:22 PM 62.8°F17.1°C 9.3°F-12.6°C 12% 17.0 mph S27.4 kmh S 23.3 mph37.5 kmh 30.08 in1018.6 mb 0.00 in0.0 mm 0.00 in0.0 mm 0.00 in0.0 mm
02:17 PM 62.4°F16.9°C 10.9°F-11.7°C 13% 10.7 mph S17.2 kmh S 17.0 mph27.4 kmh 30.09 in1019.0 mb 0.00 in0.0 mm 0.00 in0.0 mm 0.00 in0.0 mm
02:12 PM 62.2°F16.8°C 12.4°F-10.9°C 14% 8.9 mph SW14.3 kmh SW 12.8 mph20.6 kmh 30.09 in1019.0 mb 0.00 in0.0 mm 0.00 in0.0 mm 0.00 in0.0 mm
02:07 PM 62.1°F16.7°C 12.2°F-11.0°C 14% 6.3 mph SSE10.1 kmh SSE 20.1 mph32.3 kmh 30.09 in1019.0 mb 0.00 in0.0 mm 0.00 in0.0 mm 0.00 in0.0 mm
02:02 PM 62.6°F17.0°C 9.3°F-12.6°C 12% 13.0 mph S20.9 kmh S 19.0 mph30.6 kmh 30.10 in1019.3 mb 0.00 in0.0 mm 0.00 in0.0 mm 0.00 in0.0 mm
01:57 PM 63.0°F17.2°C 11.3°F-11.5°C 13% 12.5 mph S20.1 kmh S 18.1 mph29.1 kmh 30.11 in1019.6 mb 0.00 in0.0 mm 0.00 in0.0 mm 0.00 in0.0 mm
01:52 PM 62.2°F16.8°C 10.8°F-11.8°C 13% 4.5 mph SE7.2 kmh SE 14.8 mph23.8 kmh 30.11 in1019.6 mb 0.00 in0.0 mm 0.00 in0.0 mm 0.00 in0.0 mm
01:47 PM 61.9°F16.6°C 10.4°F-12.0°C 13% 13.0 mph SE20.9 kmh SE 21.3 mph34.3 kmh 30.11 in1019.6 mb 0.00 in0.0 mm 0.00 in0.0 mm 0.00 in0.0 mm
01:42 PM 61.9°F16.6°C 10.4°F-12.0°C 13% 8.1 mph SE13.0 kmh SE 21.3 mph34.3 kmh 30.12 in1020.0 mb 0.00 in0.0 mm 0.00 in0.0 mm 0.00 in0.0 mm
01:37 PM 61.5°F16.4°C 10.2°F-12.1°C 13% 12.5 mph S20.1 kmh S 20.1 mph32.3 kmh 30.13 in1020.3 mb 0.00 in0.0 mm 0.00 in0.0 mm 0.00 in0.0 mm
01:32 PM 61.3°F16.3°C 13.3°F-10.4°C 15% 10.7 mph SE17.2 kmh SE 21.3 mph34.3 kmh 30.13 in1020.3 mb 0.00 in0.0 mm 0.00 in0.0 mm 0.00 in0.0 mm
01:27 PM 61.2°F16.2°C 14.5°F-9.7°C 16% 9.8 mph S15.8 kmh S 21.3 mph34.3 kmh 30.14 in1020.7 mb 0.00 in0.0 mm 0.00 in0.0 mm 0.00 in0.0 mm
01:22 PM 60.6°F15.9°C 15.6°F-9.1°C 17% 14.5 mph SE23.3 kmh SE 23.3 mph37.5 kmh 30.14 in1020.7 mb 0.00 in0.0 mm 0.00 in0.0 mm 0.00 in0.0 mm
01:17 PM 60.4°F15.8°C 15.4°F-9.2°C 17% 13.2 mph SE21.2 kmh SE 26.6 mph42.8 kmh 30.14 in1020.7 mb 0.00 in0.0 mm 0.00 in0.0 mm 0.00 in0.0 mm
01:12 PM 60.1°F15.6°C 16.3°F-8.7°C 18% 9.6 mph SE15.4 kmh SE 17.0 mph27.4 kmh 30.16 in1021.3 mb 0.00 in0.0 mm 0.00 in0.0 mm 0.00 in0.0 mm
01:07 PM 59.5°F15.3°C 17.2°F-8.2°C 19% 8.1 mph ESE13.0 kmh ESE 15.9 mph25.6 kmh 30.16 in1021.3 mb 0.00 in0.0 mm 0.00 in0.0 mm 0.00 in0.0 mm
01:02 PM 59.4°F15.2°C 17.1°F-8.3°C 19% 15.2 mph SE24.5 kmh SE 22.4 mph36.0 kmh 30.17 in1021.7 mb 0.00 in0.0 mm 0.00 in0.0 mm 0.00 in0.0 mm
12:57 PM 59.0°F15.0°C 19.0°F-7.2°C 21% 8.1 mph S13.0 kmh S 14.8 mph23.8 kmh 30.17 in1021.7 mb 0.00 in0.0 mm 0.00 in0.0 mm 0.00 in0.0 mm
12:52 PM 58.8°F14.9°C 20.1°F-6.6°C 22% 6.9 mph SSE11.1 kmh SSE 12.8 mph20.6 kmh 30.17 in1021.7 mb 0.00 in0.0 mm 0.00 in0.0 mm 0.00 in0.0 mm
12:47 PM 57.9°F14.4°C 20.3°F-6.5°C 23% 6.9 mph SE11.1 kmh SE 17.0 mph27.4 kmh 30.18 in1022.0 mb 0.00 in0.0 mm 0.00 in0.0 mm 0.00 in0.0 mm
12:42 PM 57.6°F14.2°C 19.0°F-7.2°C 22% 9.8 mph S15.8 kmh S 14.8 mph23.8 kmh 30.19 in1022.4 mb 0.00 in0.0 mm 0.00 in0.0 mm 0.00 in0.0 mm
12:37 PM 57.4°F14.1°C 20.8°F-6.2°C 24% 4.9 mph S7.9 kmh S 13.9 mph22.4 kmh 30.19 in1022.4 mb 0.00 in0.0 mm 0.00 in0.0 mm 0.00 in0.0 mm
12:32 PM 57.4°F14.1°C 20.8°F-6.2°C 24% 8.5 mph S13.7 kmh S 13.9 mph22.4 kmh 30.19 in1022.4 mb 0.00 in0.0 mm 0.00 in0.0 mm 0.00 in0.0 mm
12:27 PM 57.4°F14.1°C 21.9°F-5.6°C 25% 8.5 mph ESE13.7 kmh ESE 13.9 mph22.4 kmh 30.20 in1022.7 mb 0.00 in0.0 mm 0.00 in0.0 mm 0.00 in0.0 mm
12:22 PM 57.2°F14.0°C 22.6°F-5.2°C 26% 4.7 mph SE7.6 kmh SE 10.5 mph16.9 kmh 30.21 in1023.0 mb 0.00 in0.0 mm 0.00 in0.0 mm 0.00 in0.0 mm
12:17 PM 56.5°F13.6°C 23.7°F-4.6°C 28% 1.8 mph E2.9 kmh E 12.8 mph20.6 kmh 30.22 in1023.4 mb 0.00 in0.0 mm 0.00 in0.0 mm 0.00 in0.0 mm
12:12 PM 55.4°F13.0°C 23.7°F-4.6°C 29% 3.1 mph SE5.0 kmh SE 14.8 mph23.8 kmh 30.22 in1023.4 mb 0.00 in0.0 mm 0.00 in0.0 mm 0.00 in0.0 mm
12:07 PM 55.0°F12.8°C 23.4°F-4.8°C 29% 7.8 mph SE12.6 kmh SE 14.8 mph23.8 kmh 30.23 in1023.7 mb 0.00 in0.0 mm 0.00 in0.0 mm 0.00 in0.0 mm
12:02 PM 54.9°F12.7°C 23.2°F-4.9°C 29% 3.8 mph SE6.1 kmh SE 8.5 mph13.7 kmh 30.23 in1023.7 mb 0.00 in0.0 mm 0.00 in0.0 mm 0.00 in0.0 mm
11:57 AM 53.8°F12.1°C 23.9°F-4.5°C 31% 1.8 mph SSW2.9 kmh SSW 8.5 mph13.7 kmh 30.24 in1024.0 mb 0.00 in0.0 mm 0.00 in0.0 mm 0.00 in0.0 mm
11:52 AM 53.1°F11.7°C 22.5°F-5.3°C 30% 7.4 mph SE11.9 kmh SE 12.8 mph20.6 kmh 30.24 in1024.0 mb 0.00 in0.0 mm 0.00 in0.0 mm 0.00 in0.0 mm
11:47 AM 52.2°F11.2°C 22.5°F-5.3°C 31% 5.1 mph SE8.2 kmh SE 11.6 mph18.7 kmh 30.25 in1024.4 mb 0.00 in0.0 mm 0.00 in0.0 mm 0.00 in0.0 mm
11:42 AM 51.1°F10.6°C 20.7°F-6.3°C 30% 11.4 mph ESE18.3 kmh ESE 17.0 mph27.4 kmh 30.26 in1024.7 mb 0.00 in0.0 mm 0.00 in0.0 mm 0.00 in0.0 mm
11:37 AM 51.3°F10.7°C 20.8°F-6.2°C 30% 10.5 mph SE16.9 kmh SE 17.0 mph27.4 kmh 30.26 in1024.7 mb 0.00 in0.0 mm 0.00 in0.0 mm 0.00 in0.0 mm
11:32 AM 51.1°F10.6°C 20.7°F-6.3°C 30% 11.2 mph SE18.0 kmh SE 14.8 mph23.8 kmh 30.27 in1025.1 mb 0.00 in0.0 mm 0.00 in0.0 mm 0.00 in0.0 mm
11:27 AM 51.3°F10.7°C 20.8°F-6.2°C 30% 9.6 mph ESE15.4 kmh ESE 14.8 mph23.8 kmh 30.28 in1025.4 mb 0.00 in0.0 mm 0.00 in0.0 mm 0.00 in0.0 mm
11:22 AM 51.1°F10.6°C 21.6°F-5.8°C 31% 7.6 mph SE12.2 kmh SE 12.8 mph20.6 kmh 30.28 in1025.4 mb 0.00 in0.0 mm 0.00 in0.0 mm 0.00 in0.0 mm
11:17 AM 51.1°F10.6°C 19.9°F-6.7°C 29% 5.4 mph SSE8.7 kmh SSE 12.8 mph20.6 kmh 30.29 in1025.7 mb 0.00 in0.0 mm 0.00 in0.0 mm 0.00 in0.0 mm
11:12 AM 51.3°F10.7°C 20.8°F-6.2°C 30% 6.0 mph SE9.7 kmh SE 10.5 mph16.9 kmh 30.30 in1026.1 mb 0.00 in0.0 mm 0.00 in0.0 mm 0.00 in0.0 mm
11:07 AM 50.9°F10.5°C 21.4°F-5.9°C 31% 4.3 mph ENE6.9 kmh ENE 11.6 mph18.7 kmh 30.30 in1026.1 mb 0.00 in0.0 mm 0.00 in0.0 mm 0.00 in0.0 mm
11:02 AM 50.4°F10.2°C 20.8°F-6.2°C 31% 2.5 mph E4.0 kmh E 6.3 mph10.1 kmh 30.31 in1026.4 mb 0.00 in0.0 mm 0.00 in0.0 mm 0.00 in0.0 mm
10:57 AM 49.3°F9.6°C 21.4°F-5.9°C 33% 6.9 mph SE11.1 kmh SE 10.5 mph16.9 kmh 30.32 in1026.8 mb 0.00 in0.0 mm 0.00 in0.0 mm 0.00 in0.0 mm
10:52 AM 48.4°F9.1°C 21.4°F-5.9°C 34% 6.0 mph S9.7 kmh S 14.8 mph23.8 kmh 30.32 in1026.8 mb 0.00 in0.0 mm 0.00 in0.0 mm 0.00 in0.0 mm
10:47 AM 48.0°F8.9°C 21.7°F-5.7°C 35% 9.8 mph SW15.8 kmh SW 18.1 mph29.1 kmh 30.32 in1026.8 mb 0.00 in0.0 mm 0.00 in0.0 mm 0.00 in0.0 mm
10:42 AM 47.1°F8.4°C 20.8°F-6.2°C 35% 9.4 mph WSW15.1 kmh WSW 17.0 mph27.4 kmh 30.32 in1026.8 mb 0.00 in0.0 mm 0.00 in0.0 mm 0.00 in0.0 mm
10:37 AM 46.8°F8.2°C 21.9°F-5.6°C 37% 6.7 mph SSW10.8 kmh SSW 9.6 mph15.4 kmh 30.32 in1026.8 mb 0.00 in0.0 mm 0.00 in0.0 mm 0.00 in0.0 mm
10:32 AM 46.0°F7.8°C 20.5°F-6.4°C 36% 4.7 mph WSW7.6 kmh WSW 10.5 mph16.9 kmh 30.33 in1027.1 mb 0.00 in0.0 mm 0.00 in0.0 mm 0.00 in0.0 mm
10:27 AM 45.5°F7.5°C 20.7°F-6.3°C 37% 4.0 mph NW6.4 kmh NW 6.3 mph10.1 kmh 30.34 in1027.4 mb 0.00 in0.0 mm 0.00 in0.0 mm 0.00 in0.0 mm
10:22 AM 45.1°F7.3°C 21.0°F-6.1°C 38% 2.0 mph 3.2 kmh 7.4 mph11.9 kmh 30.35 in1027.8 mb 0.00 in0.0 mm 0.00 in0.0 mm 0.00 in0.0 mm
10:17 AM 45.0°F7.2°C 21.6°F-5.8°C 39% 2.2 mph 3.5 kmh 4.3 mph6.9 kmh 30.35 in1027.8 mb 0.00 in0.0 mm 0.00 in0.0 mm 0.00 in0.0 mm
10:12 AM 44.6°F7.0°C 21.2°F-6.0°C 39% 1.1 mph N1.8 kmh N 8.5 mph13.7 kmh 30.35 in1027.8 mb 0.00 in0.0 mm 0.00 in0.0 mm 0.00 in0.0 mm
10:07 AM 43.7°F6.5°C 22.1°F-5.5°C 42% Calm Calm 2.0 mph3.2 kmh 30.35 in1027.8 mb 0.00 in0.0 mm 0.00 in0.0 mm 0.00 in0.0 mm
10:02 AM 43.3°F6.3°C 21.7°F-5.7°C 42% 2.9 mph N4.7 kmh N 7.4 mph11.9 kmh 30.35 in1027.8 mb 0.00 in0.0 mm 0.00 in0.0 mm 0.00 in0.0 mm
09:57 AM 43.0°F6.1°C 22.1°F-5.5°C 43% Calm Calm -- 30.36 in1028.1 mb 0.00 in0.0 mm 0.00 in0.0 mm 0.00 in0.0 mm
09:52 AM 42.4°F5.8°C 22.6°F-5.2°C 45% Calm Calm -- 30.36 in1028.1 mb 0.00 in0.0 mm 0.00 in0.0 mm 0.00 in0.0 mm
09:47 AM 41.5°F5.3°C 23.4°F-4.8°C 48% Calm Calm -- 30.36 in1028.1 mb 0.00 in0.0 mm 0.00 in0.0 mm 0.00 in0.0 mm
09:42 AM 40.6°F4.8°C 23.9°F-4.5°C 51% Calm Calm -- 30.37 in1028.4 mb 0.00 in0.0 mm 0.00 in0.0 mm 0.00 in0.0 mm
09:37 AM 40.3°F4.6°C 24.1°F-4.4°C 52% Calm Calm -- 30.37 in1028.4 mb 0.00 in0.0 mm 0.00 in0.0 mm 0.00 in0.0 mm
09:32 AM 39.0°F3.9°C 23.4°F-4.8°C 53% Calm Calm -- 30.38 in1028.8 mb 0.00 in0.0 mm 0.00 in0.0 mm 0.00 in0.0 mm
09:27 AM 38.5°F3.6°C 24.1°F-4.4°C 56% Calm Calm -- 30.37 in1028.4 mb 0.00 in0.0 mm 0.00 in0.0 mm 0.00 in0.0 mm
09:22 AM 37.9°F3.3°C 24.1°F-4.4°C 57% Calm Calm -- 30.38 in1028.8 mb 0.00 in0.0 mm 0.00 in0.0 mm 0.00 in0.0 mm
09:17 AM 37.0°F2.8°C 23.7°F-4.6°C 58% Calm Calm -- 30.39 in1029.1 mb 0.00 in0.0 mm 0.00 in0.0 mm 0.00 in0.0 mm
09:12 AM 36.5°F2.5°C 24.3°F-4.3°C 61% Calm Calm -- 30.39 in1029.1 mb 0.00 in0.0 mm 0.00 in0.0 mm 0.00 in0.0 mm
09:07 AM 35.8°F2.1°C 24.8°F-4.0°C 64% Calm Calm -- 30.39 in1029.1 mb 0.00 in0.0 mm 0.00 in0.0 mm 0.00 in0.0 mm
09:02 AM 34.9°F1.6°C 24.6°F-4.1°C 66% Calm Calm -- 30.39 in1029.1 mb 0.00 in0.0 mm 0.00 in0.0 mm 0.00 in0.0 mm
08:57 AM 34.3°F1.3°C 24.4°F-4.2°C 67% Calm Calm 3.1 mph5.0 kmh 30.39 in1029.1 mb 0.00 in0.0 mm 0.00 in0.0 mm 0.00 in0.0 mm
08:52 AM 33.8°F1.0°C 24.1°F-4.4°C 67% Calm Calm 1.1 mph1.8 kmh 30.39 in1029.1 mb 0.00 in0.0 mm 0.00 in0.0 mm 0.00 in0.0 mm
08:47 AM 33.3°F0.7°C 23.9°F-4.5°C 68% Calm Calm 10.5 mph16.9 kmh 30.39 in1029.1 mb 0.00 in0.0 mm 0.00 in0.0 mm 0.00 in0.0 mm
08:42 AM 32.7°F0.4°C 24.1°F-4.4°C 70% 6.0 mph W9.7 kmh W 10.5 mph16.9 kmh 30.39 in1029.1 mb 0.00 in0.0 mm 0.00 in0.0 mm 0.00 in0.0 mm
08:37 AM 32.4°F0.2°C 24.1°F-4.4°C 71% 1.3 mph WSW2.1 kmh WSW 6.3 mph10.1 kmh 30.39 in1029.1 mb 0.00 in0.0 mm 0.00 in0.0 mm 0.00 in0.0 mm
08:32 AM 31.6°F-0.2°C 23.9°F-4.5°C 73% 2.2 mph WSW3.5 kmh WSW 8.5 mph13.7 kmh 30.39 in1029.1 mb 0.00 in0.0 mm 0.00 in0.0 mm 0.00 in0.0 mm
08:27 AM 30.7°F-0.7°C 23.4°F-4.8°C 74% 5.8 mph WNW9.3 kmh WNW 12.8 mph20.6 kmh 30.40 in1029.5 mb 0.00 in0.0 mm 0.00 in0.0 mm 0.00 in0.0 mm
08:22 AM 30.4°F-0.9°C 23.4°F-4.8°C 75% Calm Calm 4.3 mph6.9 kmh 30.40 in1029.5 mb 0.00 in0.0 mm 0.00 in0.0 mm 0.00 in0.0 mm
08:17 AM 29.8°F-1.2°C 22.8°F-5.1°C 75% 4.9 mph WNW7.9 kmh WNW 10.5 mph16.9 kmh 30.40 in1029.5 mb 0.00 in0.0 mm 0.00 in0.0 mm 0.00 in0.0 mm
08:12 AM 29.7°F-1.3°C 23.0°F-5.0°C 76% 6.9 mph WNW11.1 kmh WNW 10.5 mph16.9 kmh 30.40 in1029.5 mb 0.00 in0.0 mm 0.00 in0.0 mm 0.00 in0.0 mm
08:07 AM 29.1°F-1.6°C 22.8°F-5.1°C 77% 8.5 mph NW13.7 kmh NW 10.5 mph16.9 kmh 30.41 in1029.8 mb 0.00 in0.0 mm 0.00 in0.0 mm 0.00 in0.0 mm
08:02 AM 28.8°F-1.8°C 22.5°F-5.3°C 77% Calm Calm 6.3 mph10.1 kmh 30.41 in1029.8 mb 0.00 in0.0 mm 0.00 in0.0 mm 0.00 in0.0 mm
07:57 AM 28.2°F-2.1°C 21.9°F-5.6°C 77% 1.8 mph NW2.9 kmh NW 8.5 mph13.7 kmh 30.41 in1029.8 mb 0.00 in0.0 mm 0.00 in0.0 mm 0.00 in0.0 mm
07:52 AM 27.9°F-2.3°C 21.9°F-5.6°C 78% 1.8 mph NW2.9 kmh NW 6.3 mph10.1 kmh 30.41 in1029.8 mb 0.00 in0.0 mm 0.00 in0.0 mm 0.00 in0.0 mm
07:47 AM 27.3°F-2.6°C 21.4°F-5.9°C 78% Calm Calm 6.3 mph10.1 kmh 30.40 in1029.5 mb 0.00 in0.0 mm 0.00 in0.0 mm 0.00 in0.0 mm
07:42 AM 26.8°F-2.9°C 21.2°F-6.0°C 79% Calm Calm 4.3 mph6.9 kmh 30.40 in1029.5 mb 0.00 in0.0 mm 0.00 in0.0 mm 0.00 in0.0 mm
07:37 AM 26.2°F-3.2°C 20.7°F-6.3°C 79% 4.3 mph NW6.9 kmh NW 10.5 mph16.9 kmh 30.40 in1029.5 mb 0.00 in0.0 mm 0.00 in0.0 mm 0.00 in0.0 mm
07:32 AM 25.9°F-3.4°C 20.3°F-6.5°C 79% 7.2 mph WNW11.6 kmh WNW 12.8 mph20.6 kmh 30.39 in1029.1 mb 0.00 in0.0 mm 0.00 in0.0 mm 0.00 in0.0 mm
07:27 AM 25.3°F-3.7°C 19.8°F-6.8°C 79% 10.3 mph NW16.6 kmh NW 14.8 mph23.8 kmh 30.40 in1029.5 mb 0.00 in0.0 mm 0.00 in0.0 mm 0.00 in0.0 mm
07:22 AM 25.0°F-3.9°C 19.4°F-7.0°C 79% 7.4 mph NW11.9 kmh NW 12.8 mph20.6 kmh 30.39 in1029.1 mb 0.00 in0.0 mm 0.00 in0.0 mm 0.00 in0.0 mm
07:17 AM 24.6°F-4.1°C 18.7°F-7.4°C 78% 6.9 mph NW11.1 kmh NW 12.8 mph20.6 kmh 30.39 in1029.1 mb 0.00 in0.0 mm 0.00 in0.0 mm 0.00 in0.0 mm
07:12 AM 24.4°F-4.2°C 18.5°F-7.5°C 78% 10.3 mph NW16.6 kmh NW 14.8 mph23.8 kmh 30.39 in1029.1 mb 0.00 in0.0 mm 0.00 in0.0 mm 0.00 in0.0 mm
07:07 AM 24.4°F-4.2°C 18.5°F-7.5°C 78% 9.4 mph NW15.1 kmh NW 12.8 mph20.6 kmh 30.38 in1028.8 mb 0.00 in0.0 mm 0.00 in0.0 mm 0.00 in0.0 mm
07:02 AM 24.4°F-4.2°C 18.5°F-7.5°C 78% 6.3 mph NW10.1 kmh NW 11.6 mph18.7 kmh 30.39 in1029.1 mb 0.00 in0.0 mm 0.00 in0.0 mm 0.00 in0.0 mm
06:57 AM 24.4°F-4.2°C 18.5°F-7.5°C 78% 4.7 mph WNW7.6 kmh WNW 11.6 mph18.7 kmh 30.39 in1029.1 mb 0.00 in0.0 mm 0.00 in0.0 mm 0.00 in0.0 mm
06:52 AM 24.6°F-4.1°C 18.5°F-7.5°C 77% 7.6 mph WNW12.2 kmh WNW 14.8 mph23.8 kmh 30.39 in1029.1 mb 0.00 in0.0 mm 0.00 in0.0 mm 0.00 in0.0 mm
06:47 AM 24.8°F-4.0°C 18.9°F-7.3°C 78% 5.8 mph WNW9.3 kmh WNW 10.5 mph16.9 kmh 30.39 in1029.1 mb 0.00 in0.0 mm 0.00 in0.0 mm 0.00 in0.0 mm
06:42 AM 24.8°F-4.0°C 18.7°F-7.4°C 77% 6.3 mph W10.1 kmh W 8.5 mph13.7 kmh 30.39 in1029.1 mb 0.00 in0.0 mm 0.00 in0.0 mm 0.00 in0.0 mm
06:37 AM 25.0°F-3.9°C 18.9°F-7.3°C 77% 4.0 mph WNW6.4 kmh WNW 8.5 mph13.7 kmh 30.39 in1029.1 mb 0.00 in0.0 mm 0.00 in0.0 mm 0.00 in0.0 mm
06:32 AM 25.2°F-3.8°C 18.7°F-7.4°C 76% 0.2 mph W0.3 kmh W 3.1 mph5.0 kmh 30.39 in1029.1 mb 0.00 in0.0 mm 0.00 in0.0 mm 0.00 in0.0 mm
06:27 AM 25.3°F-3.7°C 18.9°F-7.3°C 76% Calm Calm 9.6 mph15.4 kmh 30.39 in1029.1 mb 0.00 in0.0 mm 0.00 in0.0 mm 0.00 in0.0 mm
06:22 AM 25.5°F-3.6°C 18.7°F-7.4°C 75% 5.8 mph W9.3 kmh W 10.5 mph16.9 kmh 30.39 in1029.1 mb 0.00 in0.0 mm 0.00 in0.0 mm 0.00 in0.0 mm
06:17 AM 26.1°F-3.3°C 19.2°F-7.1°C 75% 0.4 mph W0.6 kmh W 6.3 mph10.1 kmh 30.38 in1028.8 mb 0.00 in0.0 mm 0.00 in0.0 mm 0.00 in0.0 mm
06:12 AM 26.2°F-3.2°C 19.4°F-7.0°C 75% 4.9 mph W7.9 kmh W 12.8 mph20.6 kmh 30.38 in1028.8 mb 0.00 in0.0 mm 0.00 in0.0 mm 0.00 in0.0 mm
06:07 AM 26.8°F-2.9°C 19.9°F-6.7°C 75% 3.4 mph W5.5 kmh W 12.8 mph20.6 kmh 30.38 in1028.8 mb 0.00 in0.0 mm 0.00 in0.0 mm 0.00 in0.0 mm
06:02 AM 26.8°F-2.9°C 20.3°F-6.5°C 76% 4.0 mph WSW6.4 kmh WSW 10.5 mph16.9 kmh 30.37 in1028.4 mb 0.00 in0.0 mm 0.00 in0.0 mm 0.00 in0.0 mm
05:57 AM 26.2°F-3.2°C 19.9°F-6.7°C 77% 6.9 mph W11.1 kmh W 10.5 mph16.9 kmh 30.38 in1028.8 mb 0.00 in0.0 mm 0.00 in0.0 mm 0.00 in0.0 mm
05:52 AM 25.9°F-3.4°C 19.8°F-6.8°C 77% 6.3 mph W10.1 kmh W 12.8 mph20.6 kmh 30.38 in1028.8 mb 0.00 in0.0 mm 0.00 in0.0 mm 0.00 in0.0 mm
05:47 AM 25.3°F-3.7°C 19.2°F-7.1°C 77% 6.9 mph W11.1 kmh W 12.8 mph20.6 kmh 30.38 in1028.8 mb 0.00 in0.0 mm 0.00 in0.0 mm 0.00 in0.0 mm
05:42 AM 25.3°F-3.7°C 18.9°F-7.3°C 76% 5.4 mph W8.7 kmh W 10.5 mph16.9 kmh 30.37 in1028.4 mb 0.00 in0.0 mm 0.00 in0.0 mm 0.00 in0.0 mm
05:37 AM 25.9°F-3.4°C 19.4°F-7.0°C 76% 1.3 mph W2.1 kmh W 10.5 mph16.9 kmh 30.37 in1028.4 mb 0.00 in0.0 mm 0.00 in0.0 mm 0.00 in0.0 mm
05:32 AM 26.1°F-3.3°C 19.2°F-7.1°C 75% 4.7 mph WSW7.6 kmh WSW 12.8 mph20.6 kmh 30.37 in1028.4 mb 0.00 in0.0 mm 0.00 in0.0 mm 0.00 in0.0 mm
05:27 AM 26.2°F-3.2°C 19.4°F-7.0°C 75% 3.1 mph WSW5.0 kmh WSW 14.8 mph23.8 kmh 30.37 in1028.4 mb 0.00 in0.0 mm 0.00 in0.0 mm 0.00 in0.0 mm
05:22 AM 26.6°F-3.0°C 19.8°F-6.8°C 75% 4.7 mph WSW7.6 kmh WSW 8.5 mph13.7 kmh 30.37 in1028.4 mb 0.00 in0.0 mm 0.00 in0.0 mm 0.00 in0.0 mm
05:17 AM 26.8°F-2.9°C 19.9°F-6.7°C 75% 5.1 mph W8.2 kmh W 10.5 mph16.9 kmh 30.37 in1028.4 mb 0.00 in0.0 mm 0.00 in0.0 mm 0.00 in0.0 mm
05:12 AM 26.8°F-2.9°C 19.9°F-6.7°C 75% 4.5 mph NW7.2 kmh NW 15.9 mph25.6 kmh 30.37 in1028.4 mb 0.00 in0.0 mm 0.00 in0.0 mm 0.00 in0.0 mm
05:07 AM 26.8°F-2.9°C 19.9°F-6.7°C 75% 9.2 mph WNW14.8 kmh WNW 14.8 mph23.8 kmh 30.37 in1028.4 mb 0.00 in0.0 mm 0.00 in0.0 mm 0.00 in0.0 mm
05:02 AM 26.6°F-3.0°C 19.8°F-6.8°C 75% 6.7 mph NW10.8 kmh NW 10.5 mph16.9 kmh 30.37 in1028.4 mb 0.00 in0.0 mm 0.00 in0.0 mm 0.00 in0.0 mm
04:57 AM 26.6°F-3.0°C 19.8°F-6.8°C 75% 4.9 mph NW7.9 kmh NW 12.8 mph20.6 kmh 30.36 in1028.1 mb 0.00 in0.0 mm 0.00 in0.0 mm 0.00 in0.0 mm
04:52 AM 26.8°F-2.9°C 19.9°F-6.7°C 75% 7.4 mph NW11.9 kmh NW 12.8 mph20.6 kmh 30.36 in1028.1 mb 0.00 in0.0 mm 0.00 in0.0 mm 0.00 in0.0 mm
04:47 AM 26.8°F-2.9°C 19.9°F-6.7°C 75% 8.7 mph WNW14.0 kmh WNW 14.8 mph23.8 kmh 30.36 in1028.1 mb 0.00 in0.0 mm 0.00 in0.0 mm 0.00 in0.0 mm
04:42 AM 27.0°F-2.8°C 20.1°F-6.6°C 75% 7.6 mph NW12.2 kmh NW 12.8 mph20.6 kmh 30.36 in1028.1 mb 0.00 in0.0 mm 0.00 in0.0 mm 0.00 in0.0 mm
04:37 AM 27.0°F-2.8°C 19.8°F-6.8°C 74% 7.4 mph WNW11.9 kmh WNW 18.1 mph29.1 kmh 30.36 in1028.1 mb 0.00 in0.0 mm 0.00 in0.0 mm 0.00 in0.0 mm
04:32 AM 27.1°F-2.7°C 19.9°F-6.7°C 74% 6.9 mph W11.1 kmh W 15.9 mph25.6 kmh 30.36 in1028.1 mb 0.00 in0.0 mm 0.00 in0.0 mm 0.00 in0.0 mm
04:27 AM 27.1°F-2.7°C 19.9°F-6.7°C 74% 10.3 mph NW16.6 kmh NW 17.0 mph27.4 kmh 30.36 in1028.1 mb 0.00 in0.0 mm 0.00 in0.0 mm 0.00 in0.0 mm
04:22 AM 27.3°F-2.6°C 20.1°F-6.6°C 74% 9.2 mph WNW14.8 kmh WNW 14.8 mph23.8 kmh 30.35 in1027.8 mb 0.00 in0.0 mm 0.00 in0.0 mm 0.00 in0.0 mm
04:17 AM 27.5°F-2.5°C 20.3°F-6.5°C 74% 10.1 mph NW16.3 kmh NW 19.0 mph30.6 kmh 30.35 in1027.8 mb 0.00 in0.0 mm 0.00 in0.0 mm 0.00 in0.0 mm
04:12 AM 27.7°F-2.4°C 20.1°F-6.6°C 73% 8.3 mph WNW13.4 kmh WNW 17.0 mph27.4 kmh 30.35 in1027.8 mb 0.00 in0.0 mm 0.00 in0.0 mm 0.00 in0.0 mm
04:07 AM 27.7°F-2.4°C 20.1°F-6.6°C 73% 8.5 mph W13.7 kmh W 14.8 mph23.8 kmh 30.35 in1027.8 mb 0.00 in0.0 mm 0.00 in0.0 mm 0.00 in0.0 mm
04:02 AM 27.9°F-2.3°C 20.3°F-6.5°C 73% 8.3 mph NW13.4 kmh NW 14.8 mph23.8 kmh 30.35 in1027.8 mb 0.00 in0.0 mm 0.00 in0.0 mm 0.00 in0.0 mm
03:57 AM 27.7°F-2.4°C 20.1°F-6.6°C 73% 7.6 mph NW12.2 kmh NW 10.5 mph16.9 kmh 30.35 in1027.8 mb 0.00 in0.0 mm 0.00 in0.0 mm 0.00 in0.0 mm
03:52 AM 27.9°F-2.3°C 20.3°F-6.5°C 73% 6.3 mph NW10.1 kmh NW 12.8 mph20.6 kmh 30.34 in1027.4 mb 0.00 in0.0 mm 0.00 in0.0 mm 0.00 in0.0 mm
03:47 AM 27.7°F-2.4°C 20.1°F-6.6°C 73% 10.1 mph NW16.3 kmh NW 17.0 mph27.4 kmh 30.35 in1027.8 mb 0.00 in0.0 mm 0.00 in0.0 mm 0.00 in0.0 mm
03:42 AM 27.9°F-2.3°C 20.3°F-6.5°C 73% 4.7 mph WNW7.6 kmh WNW 10.5 mph16.9 kmh 30.35 in1027.8 mb 0.00 in0.0 mm 0.00 in0.0 mm 0.00 in0.0 mm
03:37 AM 27.9°F-2.3°C 20.3°F-6.5°C 73% 7.6 mph NW12.2 kmh NW 11.6 mph18.7 kmh 30.35 in1027.8 mb 0.00 in0.0 mm 0.00 in0.0 mm 0.00 in0.0 mm
03:32 AM 27.9°F-2.3°C 20.3°F-6.5°C 73% 5.6 mph NW9.0 kmh NW 10.5 mph16.9 kmh 30.34 in1027.4 mb 0.00 in0.0 mm 0.00 in0.0 mm 0.00 in0.0 mm
03:27 AM 27.9°F-2.3°C 20.3°F-6.5°C 73% 6.3 mph WNW10.1 kmh WNW 9.6 mph15.4 kmh 30.34 in1027.4 mb 0.00 in0.0 mm 0.00 in0.0 mm 0.00 in0.0 mm
03:22 AM 27.9°F-2.3°C 20.3°F-6.5°C 73% 4.5 mph WNW7.2 kmh WNW 12.8 mph20.6 kmh 30.34 in1027.4 mb 0.00 in0.0 mm 0.00 in0.0 mm 0.00 in0.0 mm
03:17 AM 27.9°F-2.3°C 20.3°F-6.5°C 73% 8.1 mph NW13.0 kmh NW 14.8 mph23.8 kmh 30.35 in1027.8 mb 0.00 in0.0 mm 0.00 in0.0 mm 0.00 in0.0 mm
03:12 AM 27.9°F-2.3°C 20.3°F-6.5°C 73% 8.7 mph NW14.0 kmh NW 14.8 mph23.8 kmh 30.35 in1027.8 mb 0.00 in0.0 mm 0.00 in0.0 mm 0.00 in0.0 mm
03:07 AM 27.9°F-2.3°C 20.3°F-6.5°C 73% 6.9 mph NW11.1 kmh NW 14.8 mph23.8 kmh 30.35 in1027.8 mb 0.00 in0.0 mm 0.00 in0.0 mm 0.00 in0.0 mm
03:02 AM 28.0°F-2.2°C 20.1°F-6.6°C 72% 6.9 mph NW11.1 kmh NW 10.5 mph16.9 kmh 30.35 in1027.8 mb 0.00 in0.0 mm 0.00 in0.0 mm 0.00 in0.0 mm
02:57 AM 28.0°F-2.2°C 20.1°F-6.6°C 72% 8.9 mph NW14.3 kmh NW 12.8 mph20.6 kmh 30.35 in1027.8 mb 0.00 in0.0 mm 0.00 in0.0 mm 0.00 in0.0 mm
02:52 AM 28.2°F-2.1°C 20.3°F-6.5°C 72% 6.7 mph NW10.8 kmh NW 11.6 mph18.7 kmh 30.35 in1027.8 mb 0.00 in0.0 mm 0.00 in0.0 mm 0.00 in0.0 mm
02:47 AM 28.2°F-2.1°C 20.3°F-6.5°C 72% 3.6 mph NW5.8 kmh NW 14.8 mph23.8 kmh 30.34 in1027.4 mb 0.00 in0.0 mm 0.00 in0.0 mm 0.00 in0.0 mm
02:42 AM 28.4°F-2.0°C 20.5°F-6.4°C 72% 7.4 mph NW11.9 kmh NW 12.8 mph20.6 kmh 30.34 in1027.4 mb 0.00 in0.0 mm 0.00 in0.0 mm 0.00 in0.0 mm
02:37 AM 28.4°F-2.0°C 20.5°F-6.4°C 72% 7.8 mph NW12.6 kmh NW 10.5 mph16.9 kmh 30.33 in1027.1 mb 0.00 in0.0 mm 0.00 in0.0 mm 0.00 in0.0 mm
02:32 AM 28.4°F-2.0°C 20.5°F-6.4°C 72% 7.2 mph NW11.6 kmh NW 10.5 mph16.9 kmh 30.33 in1027.1 mb 0.00 in0.0 mm 0.00 in0.0 mm 0.00 in0.0 mm
02:27 AM 28.2°F-2.1°C 20.3°F-6.5°C 72% 4.7 mph WNW7.6 kmh WNW 9.6 mph15.4 kmh 30.34 in1027.4 mb 0.00 in0.0 mm 0.00 in0.0 mm 0.00 in0.0 mm
02:22 AM 28.2°F-2.1°C 20.7°F-6.3°C 73% 6.0 mph NW9.7 kmh NW 10.5 mph16.9 kmh 30.34 in1027.4 mb 0.00 in0.0 mm 0.00 in0.0 mm 0.00 in0.0 mm
02:17 AM 28.2°F-2.1°C 20.3°F-6.5°C 72% 1.3 mph NW2.1 kmh NW 6.3 mph10.1 kmh 30.33 in1027.1 mb 0.00 in0.0 mm 0.00 in0.0 mm 0.00 in0.0 mm
02:12 AM 28.2°F-2.1°C 20.3°F-6.5°C 72% 4.3 mph NW6.9 kmh NW 11.6 mph18.7 kmh 30.33 in1027.1 mb 0.00 in0.0 mm 0.00 in0.0 mm 0.00 in0.0 mm
02:07 AM 28.2°F-2.1°C 20.7°F-6.3°C 73% 8.9 mph NW14.3 kmh NW 13.9 mph22.4 kmh 30.33 in1027.1 mb 0.00 in0.0 mm 0.00 in0.0 mm 0.00 in0.0 mm
02:02 AM 28.2°F-2.1°C 20.7°F-6.3°C 73% 8.1 mph NW13.0 kmh NW 12.8 mph20.6 kmh 30.33 in1027.1 mb 0.00 in0.0 mm 0.00 in0.0 mm 0.00 in0.0 mm
01:57 AM 28.2°F-2.1°C 20.7°F-6.3°C 73% 6.9 mph WNW11.1 kmh WNW 14.8 mph23.8 kmh 30.32 in1026.8 mb 0.00 in0.0 mm 0.00 in0.0 mm 0.00 in0.0 mm
01:52 AM 28.0°F-2.2°C 20.8°F-6.2°C 74% 8.7 mph WNW14.0 kmh WNW 14.8 mph23.8 kmh 30.32 in1026.8 mb 0.00 in0.0 mm 0.00 in0.0 mm 0.00 in0.0 mm
01:47 AM 27.9°F-2.3°C 20.7°F-6.3°C 74% 6.7 mph WNW10.8 kmh WNW 15.9 mph25.6 kmh 30.32 in1026.8 mb 0.00 in0.0 mm 0.00 in0.0 mm 0.00 in0.0 mm
01:42 AM 27.9°F-2.3°C 20.7°F-6.3°C 74% 8.9 mph WNW14.3 kmh WNW 14.8 mph23.8 kmh 30.32 in1026.8 mb 0.00 in0.0 mm 0.00 in0.0 mm 0.00 in0.0 mm
01:37 AM 28.0°F-2.2°C 20.5°F-6.4°C 73% 8.1 mph W13.0 kmh W 12.8 mph20.6 kmh 30.32 in1026.8 mb 0.00 in0.0 mm 0.00 in0.0 mm 0.00 in0.0 mm
01:32 AM 28.0°F-2.2°C 20.5°F-6.4°C 73% 7.8 mph WNW12.6 kmh WNW 19.0 mph30.6 kmh 30.32 in1026.8 mb 0.00 in0.0 mm 0.00 in0.0 mm 0.00 in0.0 mm
01:27 AM 28.0°F-2.2°C 20.5°F-6.4°C 73% 11.0 mph WNW17.7 kmh WNW 19.0 mph30.6 kmh 30.32 in1026.8 mb 0.00 in0.0 mm 0.00 in0.0 mm 0.00 in0.0 mm
01:22 AM 28.2°F-2.1°C 20.7°F-6.3°C 73% 8.3 mph W13.4 kmh W 17.0 mph27.4 kmh 30.32 in1026.8 mb 0.00 in0.0 mm 0.00 in0.0 mm 0.00 in0.0 mm
01:17 AM 28.6°F-1.9°C 20.3°F-6.5°C 71% 10.3 mph W16.6 kmh W 19.0 mph30.6 kmh 30.32 in1026.8 mb 0.00 in0.0 mm 0.00 in0.0 mm 0.00 in0.0 mm
01:12 AM 28.9°F-1.7°C 20.7°F-6.3°C 71% 7.8 mph W12.6 kmh W 11.6 mph18.7 kmh 30.32 in1026.8 mb 0.00 in0.0 mm 0.00 in0.0 mm 0.00 in0.0 mm
01:07 AM 29.3°F-1.5°C 20.7°F-6.3°C 70% 9.4 mph W15.1 kmh W 14.8 mph23.8 kmh 30.32 in1026.8 mb 0.00 in0.0 mm 0.00 in0.0 mm 0.00 in0.0 mm
01:02 AM 29.3°F-1.5°C 20.7°F-6.3°C 70% 6.5 mph W10.5 kmh W 10.5 mph16.9 kmh 30.32 in1026.8 mb 0.00 in0.0 mm 0.00 in0.0 mm 0.00 in0.0 mm
12:57 AM 29.1°F-1.6°C 20.8°F-6.2°C 71% 5.8 mph NW9.3 kmh NW 12.8 mph20.6 kmh 30.31 in1026.4 mb 0.00 in0.0 mm 0.00 in0.0 mm 0.00 in0.0 mm
12:52 AM 28.9°F-1.7°C 20.7°F-6.3°C 71% 7.4 mph NW11.9 kmh NW 13.9 mph22.4 kmh 30.32 in1026.8 mb 0.00 in0.0 mm 0.00 in0.0 mm 0.00 in0.0 mm
12:47 AM 28.8°F-1.8°C 20.5°F-6.4°C 71% 6.9 mph WNW11.1 kmh WNW 17.0 mph27.4 kmh 30.31 in1026.4 mb 0.00 in0.0 mm 0.00 in0.0 mm 0.00 in0.0 mm
12:42 AM 28.8°F-1.8°C 20.5°F-6.4°C 71% 9.8 mph NW15.8 kmh NW 17.0 mph27.4 kmh 30.31 in1026.4 mb 0.00 in0.0 mm 0.00 in0.0 mm 0.00 in0.0 mm
12:37 AM 28.6°F-1.9°C 20.3°F-6.5°C 71% 8.3 mph NW13.4 kmh NW 13.9 mph22.4 kmh 30.31 in1026.4 mb 0.00 in0.0 mm 0.00 in0.0 mm 0.00 in0.0 mm
12:32 AM 28.8°F-1.8°C 20.5°F-6.4°C 71% 6.9 mph NW11.1 kmh NW 13.9 mph22.4 kmh 30.31 in1026.4 mb 0.00 in0.0 mm 0.00 in0.0 mm 0.00 in0.0 mm
12:27 AM 28.8°F-1.8°C 20.8°F-6.2°C 72% 6.9 mph NW11.1 kmh NW 10.5 mph16.9 kmh 30.32 in1026.8 mb 0.00 in0.0 mm 0.00 in0.0 mm 0.00 in0.0 mm
12:22 AM 28.8°F-1.8°C 20.8°F-6.2°C 72% 6.0 mph NW9.7 kmh NW 14.8 mph23.8 kmh 30.32 in1026.8 mb 0.00 in0.0 mm 0.00 in0.0 mm 0.00 in0.0 mm
12:17 AM 28.8°F-1.8°C 20.8°F-6.2°C 72% 6.5 mph WNW10.5 kmh WNW 11.6 mph18.7 kmh 30.32 in1026.8 mb 0.00 in0.0 mm 0.00 in0.0 mm 0.00 in0.0 mm
12:12 AM 28.8°F-1.8°C 20.8°F-6.2°C 72% 5.1 mph NW8.2 kmh NW 10.5 mph16.9 kmh 30.31 in1026.4 mb 0.00 in0.0 mm 0.00 in0.0 mm 0.00 in0.0 mm
12:07 AM 28.8°F-1.8°C 20.8°F-6.2°C 72% 5.4 mph NW8.7 kmh NW 12.8 mph20.6 kmh 30.32 in1026.8 mb 0.00 in0.0 mm 0.00 in0.0 mm 0.00 in0.0 mm
12:02 AM 28.9°F-1.7°C 21.0°F-6.1°C 72% 8.5 mph NW13.7 kmh NW 13.9 mph22.4 kmh 30.31 in1026.4 mb 0.00 in0.0 mm 0.00 in0.0 mm 0.00 in0.0 mm